Terminal Aerodrome Forecast
Issued by NWS

Home | Current Version | Previous Version | Text Only | Print | Product List | Glossary On
Versions: 1 2 3 4 5 6 7 8 9 10 11 12 13 14 15 16 17 18 19 20 21 22 23 24 25 26 27 28 29 30 31 32 33 34
459
FTUS41 KBOX 072343
TAFHYA
TAF
KHYA 072343Z 0800/0824 06004KT P6SM OVC200
     FM080200 06008KT P6SM OVC100
     FM080600 06014KT P6SM VCSH OVC025
     FM080800 05016G31KT 2SM -SN OVC025
     FM080900 05017G38KT 2SM -SN OVC020
     FM081100 04018G42KT 1/4SM SN FG OVC015
     FM081200 04019G42KT 1/4SM +SN FG OVC015
     FM081800 03024G47KT 1/2SM SN FG OVC008
     FM082100 02020G44KT 1/2SM SN FG OVC015=

USA.gov is the U.S. government's official web portal to all federal, state and local government web resources and services.